createdAt,value
2017-07-01T00:01:29.772Z,17.10
2017-07-01T00:03:56.041Z,17.00
2017-07-01T00:06:22.315Z,16.80
2017-07-01T00:08:48.616Z,16.90
2017-07-01T00:11:14.886Z,16.70
2017-07-01T00:13:41.180Z,17.00
2017-07-01T00:17:35.981Z,16.70
2017-07-01T00:20:02.269Z,16.90
2017-07-01T00:22:28.521Z,16.70
2017-07-01T00:24:54.819Z,17.10
2017-07-01T00:27:21.090Z,17.00
2017-07-01T00:29:47.335Z,16.60
2017-07-01T00:32:13.610Z,16.80
2017-07-01T00:34:39.856Z,16.60
2017-07-01T00:37:06.147Z,16.90
2017-07-01T00:39:32.446Z,16.80
2017-07-01T00:41:58.732Z,16.40
2017-07-01T00:44:25.001Z,17.00
2017-07-01T00:46:51.250Z,16.70
2017-07-01T00:49:17.560Z,16.50
2017-07-01T00:51:43.827Z,16.40
2017-07-01T00:54:10.103Z,16.60
2017-07-01T00:56:36.392Z,16.60
2017-07-01T00:59:02.683Z,16.80
2017-07-01T01:01:28.969Z,16.90
2017-07-01T01:03:55.254Z,16.50
2017-07-01T01:06:21.565Z,16.20
2017-07-01T01:08:47.835Z,16.40
2017-07-01T01:11:14.094Z,16.40
2017-07-01T01:13:40.374Z,16.20
2017-07-01T01:17:35.624Z,16.30
2017-07-01T01:20:01.916Z,16.20
2017-07-01T01:22:28.249Z,16.50
2017-07-01T01:24:54.517Z,16.10
2017-07-01T01:27:20.790Z,16.20
2017-07-01T01:29:47.071Z,16.40
2017-07-01T01:32:13.340Z,16.40
2017-07-01T01:34:39.610Z,16.30
2017-07-01T01:37:05.924Z,16.20
2017-07-01T01:39:32.219Z,16.00
2017-07-01T01:41:58.533Z,15.70
2017-07-01T01:44:24.813Z,16.00
2017-07-01T01:46:51.113Z,15.30
2017-07-01T01:49:17.434Z,15.80
2017-07-01T01:51:43.718Z,16.20
2017-07-01T01:54:10.003Z,15.80
2017-07-01T01:56:36.319Z,15.90
2017-07-01T01:59:02.606Z,15.70
2017-07-01T02:01:28.980Z,15.80
2017-07-01T02:03:55.300Z,15.20
2017-07-01T02:06:22.362Z,15.90
2017-07-01T02:08:50.192Z,15.70
2017-07-01T02:11:16.453Z,15.70
2017-07-01T02:13:42.764Z,15.60
2017-07-01T02:17:52.932Z,15.80
2017-07-01T02:20:20.775Z,15.60
2017-07-01T02:22:47.044Z,15.70
2017-07-01T02:25:34.327Z,15.70
2017-07-01T02:28:01.203Z,15.50
2017-07-01T02:30:27.487Z,15.50
2017-07-01T02:33:05.994Z,15.70
2017-07-01T02:35:32.273Z,15.60
2017-07-01T02:37:58.550Z,15.80
2017-07-01T02:40:24.825Z,15.80
2017-07-01T02:42:51.884Z,15.70
2017-07-01T02:45:28.868Z,15.80
2017-07-01T02:47:56.958Z,15.90
2017-07-01T02:50:28.081Z,15.60
2017-07-01T02:53:06.180Z,15.60
2017-07-01T02:55:58.083Z,15.90
2017-07-01T02:58:39.062Z,16.00
2017-07-01T03:01:05.344Z,15.70
2017-07-01T03:03:31.850Z,15.90
2017-07-01T03:05:58.141Z,15.60
2017-07-01T03:08:24.457Z,16.00
2017-07-01T03:10:50.724Z,15.90
2017-07-01T03:13:17.038Z,15.80
2017-07-01T03:17:36.018Z,15.90
2017-07-01T03:20:02.310Z,15.70
2017-07-01T03:22:28.616Z,15.90
2017-07-01T03:24:54.911Z,16.30
2017-07-01T03:27:21.947Z,16.00
2017-07-01T03:29:48.218Z,15.80
2017-07-01T03:32:14.536Z,15.80
2017-07-01T03:34:40.891Z,15.80
2017-07-01T03:37:24.069Z,15.60
2017-07-01T03:40:08.901Z,15.60
2017-07-01T03:42:39.981Z,15.60
2017-07-01T03:45:25.051Z,15.80
2017-07-01T03:47:54.027Z,15.60
2017-07-01T03:50:20.315Z,15.50
2017-07-01T03:52:46.594Z,15.70
2017-07-01T03:55:13.646Z,15.80
2017-07-01T03:57:43.504Z,15.50
2017-07-01T04:00:09.784Z,15.60
2017-07-01T04:02:36.795Z,15.80
2017-07-01T04:05:03.078Z,15.60
2017-07-01T04:07:29.986Z,15.90
2017-07-01T04:09:56.246Z,15.70
2017-07-01T04:12:22.570Z,15.80
2017-07-01T04:14:49.573Z,15.70
2017-07-01T04:17:36.406Z,15.90
2017-07-01T04:20:08.388Z,15.90
2017-07-01T04:22:35.495Z,16.00
2017-07-01T04:25:01.777Z,15.60
2017-07-01T04:27:28.063Z,15.80
2017-07-01T04:29:54.411Z,15.70
2017-07-01T04:32:20.937Z,15.90
2017-07-01T04:34:47.191Z,15.80
2017-07-01T04:37:13.451Z,16.30
2017-07-01T04:39:39.707Z,15.80
2017-07-01T04:42:22.761Z,15.70
2017-07-01T04:44:52.003Z,16.00
2017-07-01T04:47:18.295Z,15.70
2017-07-01T04:49:44.588Z,16.20
2017-07-01T04:52:16.611Z,16.20
2017-07-01T04:54:43.868Z,15.60
2017-07-01T04:57:25.860Z,15.90
2017-07-01T04:59:58.829Z,15.60
2017-07-01T05:02:25.070Z,15.90
2017-07-01T05:04:51.347Z,15.80
2017-07-01T05:07:33.703Z,16.00
2017-07-01T05:10:04.672Z,16.40
2017-07-01T05:12:36.645Z,16.00
2017-07-01T05:15:06.716Z,16.00
2017-07-01T05:17:40.898Z,16.20
2017-07-01T05:20:09.744Z,16.40
2017-07-01T05:22:40.840Z,16.30
2017-07-01T05:25:09.042Z,15.80
2017-07-01T05:27:57.495Z,16.10
2017-07-01T05:30:39.614Z,16.00
2017-07-01T05:33:07.867Z,16.20
2017-07-01T05:35:44.095Z,16.10
2017-07-01T05:38:21.448Z,16.10
2017-07-01T05:40:51.489Z,16.50
2017-07-01T05:43:19.346Z,16.10
2017-07-01T05:45:49.468Z,15.50
2017-07-01T05:48:19.679Z,16.40
2017-07-01T05:50:45.961Z,16.10
2017-07-01T05:53:12.254Z,16.10
2017-07-01T05:55:38.519Z,15.80
2017-07-01T05:58:04.803Z,16.40
2017-07-01T06:00:46.791Z,16.10
2017-07-01T06:03:13.030Z,16.30
2017-07-01T06:05:40.270Z,16.40
2017-07-01T06:08:06.590Z,16.10
2017-07-01T06:10:42.794Z,16.30
2017-07-01T06:13:09.896Z,16.20
2017-07-01T06:17:38.672Z,16.20
2017-07-01T06:20:04.960Z,16.10
2017-07-01T06:22:49.942Z,16.20
2017-07-01T06:25:16.232Z,16.50
2017-07-01T06:28:02.390Z,16.00
2017-07-01T06:30:38.583Z,16.10
2017-07-01T06:33:07.597Z,16.30
2017-07-01T06:35:34.603Z,16.00
2017-07-01T06:38:30.746Z,16.10
2017-07-01T06:41:30.903Z,16.20
2017-07-01T06:44:18.103Z,16.10
2017-07-01T06:46:52.076Z,16.30
2017-07-01T06:49:18.351Z,16.10
2017-07-01T06:51:44.601Z,16.20
2017-07-01T06:54:14.631Z,16.20
2017-07-01T06:56:40.892Z,15.80
2017-07-01T06:59:07.171Z,16.20
2017-07-01T07:01:33.579Z,16.10
2017-07-01T07:03:59.866Z,16.10
2017-07-01T07:06:26.122Z,16.00
2017-07-01T07:08:52.372Z,16.40
2017-07-01T07:11:18.679Z,16.10
2017-07-01T07:13:45.078Z,16.10
2017-07-01T07:17:37.697Z,16.40
2017-07-01T07:20:03.999Z,16.20
2017-07-01T07:22:30.247Z,16.20
2017-07-01T07:24:56.565Z,16.40
2017-07-01T07:27:22.875Z,16.20
2017-07-01T07:29:49.147Z,16.20
2017-07-01T07:32:15.436Z,16.50
2017-07-01T07:34:41.751Z,16.20
2017-07-01T07:37:08.059Z,16.50
2017-07-01T07:39:34.298Z,16.20
2017-07-01T07:42:00.539Z,16.20
2017-07-01T07:44:26.792Z,16.20
2017-07-01T07:46:53.064Z,16.20
2017-07-01T07:49:19.307Z,16.30
2017-07-01T07:51:45.568Z,16.40
2017-07-01T07:54:11.795Z,16.20
2017-07-01T07:56:38.079Z,16.60
2017-07-01T07:59:04.316Z,16.90
2017-07-01T08:01:30.551Z,16.60
2017-07-01T08:03:56.854Z,16.50
2017-07-01T08:06:23.133Z,16.50
2017-07-01T08:08:49.370Z,16.70
2017-07-01T08:11:15.623Z,16.60
2017-07-01T08:13:41.883Z,16.60
2017-07-01T08:17:35.678Z,16.60
2017-07-01T08:20:01.954Z,16.80
2017-07-01T08:22:28.196Z,16.60
2017-07-01T08:24:54.440Z,17.00
2017-07-01T08:27:20.739Z,16.90
2017-07-01T08:29:46.974Z,16.60
2017-07-01T08:32:13.263Z,16.70
2017-07-01T08:34:39.495Z,17.10
2017-07-01T08:37:05.778Z,17.10
2017-07-01T08:39:33.355Z,17.00
2017-07-01T08:41:59.763Z,17.00
2017-07-01T08:44:26.035Z,16.70
2017-07-01T08:46:52.591Z,16.90
2017-07-01T08:49:18.835Z,16.80
2017-07-01T08:51:45.254Z,17.30
2017-07-01T08:54:11.503Z,17.60
2017-07-01T08:56:37.786Z,17.10
2017-07-01T08:59:04.039Z,17.70
2017-07-01T09:01:30.283Z,17.50
2017-07-01T09:03:56.548Z,17.30
2017-07-01T09:06:23.247Z,17.70
2017-07-01T09:08:49.727Z,17.80
2017-07-01T09:11:16.165Z,18.10
2017-07-01T09:13:42.500Z,18.00
2017-07-01T09:17:35.919Z,17.80
2017-07-01T09:20:02.397Z,17.90
2017-07-01T09:22:28.672Z,17.60
2017-07-01T09:24:54.925Z,17.70
2017-07-01T09:27:21.174Z,18.00
2017-07-01T09:29:47.862Z,18.00
2017-07-01T09:32:14.139Z,18.10
2017-07-01T09:34:40.428Z,18.10
2017-07-01T09:37:06.692Z,18.10
2017-07-01T09:39:33.066Z,18.10
2017-07-01T09:41:59.315Z,18.10
2017-07-01T09:44:25.565Z,18.20
2017-07-01T09:46:51.890Z,18.00
2017-07-01T09:49:18.261Z,18.10
2017-07-01T09:51:44.537Z,18.10
2017-07-01T09:54:10.908Z,18.20
2017-07-01T09:56:37.168Z,18.00
2017-07-01T09:59:03.456Z,18.50
2017-07-01T10:01:29.709Z,18.40
2017-07-01T10:03:55.975Z,18.30
2017-07-01T10:06:22.982Z,18.60
2017-07-01T10:08:49.231Z,18.10
2017-07-01T10:11:15.484Z,18.30
2017-07-01T10:13:41.775Z,18.00
2017-07-01T10:17:36.933Z,18.70
2017-07-01T10:20:03.202Z,18.50
2017-07-01T10:22:29.478Z,18.60
2017-07-01T10:24:55.780Z,18.60
2017-07-01T10:27:22.089Z,18.60
2017-07-01T10:29:48.405Z,18.50
2017-07-01T10:32:14.685Z,18.10
2017-07-01T10:34:40.935Z,18.00
2017-07-01T10:37:07.255Z,18.20
2017-07-01T10:39:33.544Z,18.10
2017-07-01T10:41:59.862Z,17.90
2017-07-01T10:44:26.136Z,17.90
2017-07-01T10:46:52.406Z,18.20
2017-07-01T10:49:18.721Z,18.10
2017-07-01T10:51:45.007Z,18.20
2017-07-01T10:54:11.244Z,18.10
2017-07-01T10:56:37.507Z,18.20
2017-07-01T10:59:03.783Z,18.00
2017-07-01T11:01:30.068Z,18.20
2017-07-01T11:03:56.372Z,18.10
2017-07-01T11:06:22.644Z,18.20
2017-07-01T11:08:48.915Z,18.30
2017-07-01T11:11:15.178Z,18.10
2017-07-01T11:13:41.452Z,18.20
2017-07-01T11:17:35.753Z,18.60
2017-07-01T11:20:02.015Z,18.40
2017-07-01T11:22:28.307Z,18.40
2017-07-01T11:24:54.579Z,18.40
2017-07-01T11:27:20.836Z,18.10
2017-07-01T11:29:47.120Z,18.50
2017-07-01T11:32:13.405Z,18.70
2017-07-01T11:34:39.683Z,18.70
2017-07-01T11:37:05.976Z,18.50
2017-07-01T11:39:32.232Z,18.70
2017-07-01T11:41:58.491Z,18.70
2017-07-01T11:44:24.749Z,18.90
2017-07-01T11:46:51.038Z,19.10
2017-07-01T11:49:17.337Z,18.70
2017-07-01T11:51:43.583Z,18.40
2017-07-01T11:54:09.862Z,18.90
2017-07-01T11:56:36.316Z,18.60
2017-07-01T11:59:02.595Z,18.70
2017-07-01T12:01:28.854Z,18.60
2017-07-01T12:03:55.116Z,18.50
2017-07-01T12:06:21.392Z,18.70
2017-07-01T12:08:47.781Z,18.80
2017-07-01T12:11:14.054Z,18.60
2017-07-01T12:13:40.310Z,19.20
2017-07-01T12:17:36.351Z,19.20
2017-07-01T12:20:02.610Z,18.60
2017-07-01T12:22:28.911Z,18.10
2017-07-01T12:24:55.235Z,18.00
2017-07-01T12:27:21.540Z,18.30
2017-07-01T12:29:47.791Z,18.10
2017-07-01T12:32:14.083Z,18.00
2017-07-01T12:34:40.361Z,18.50
2017-07-01T12:37:13.458Z,18.60
2017-07-01T12:39:40.487Z,18.70
2017-07-01T12:42:07.504Z,18.60
2017-07-01T12:44:33.874Z,18.70
2017-07-01T12:47:00.869Z,18.10
2017-07-01T12:49:27.168Z,18.20
2017-07-01T12:51:53.387Z,18.10
2017-07-01T12:54:19.659Z,18.00
2017-07-01T12:56:45.899Z,18.20
2017-07-01T12:59:12.552Z,18.10
2017-07-01T13:01:38.843Z,18.20
2017-07-01T13:04:05.160Z,17.80
2017-07-01T13:06:31.415Z,18.00
2017-07-01T13:08:57.911Z,18.50
2017-07-01T13:11:24.163Z,18.70
2017-07-01T13:13:50.421Z,18.60
2017-07-01T13:17:36.096Z,18.60
2017-07-01T13:20:02.349Z,18.40
2017-07-01T13:22:28.611Z,19.40
2017-07-01T13:24:54.868Z,19.30
2017-07-01T13:27:21.171Z,20.00
2017-07-01T13:29:47.458Z,19.70
2017-07-01T13:32:13.724Z,20.10
2017-07-01T13:34:39.993Z,20.00
2017-07-01T13:37:06.287Z,20.00
2017-07-01T13:39:32.566Z,20.10
2017-07-01T13:41:58.857Z,19.80
2017-07-01T13:44:25.168Z,19.70
2017-07-01T13:46:51.415Z,19.90
2017-07-01T13:49:17.699Z,20.70
2017-07-01T13:51:43.947Z,20.70
2017-07-01T13:54:10.981Z,20.70
2017-07-01T14:06:22.994Z,21.40
2017-07-01T14:08:49.310Z,21.20
2017-07-01T14:11:15.611Z,21.40
2017-07-01T14:13:41.980Z,21.20
2017-07-01T14:17:35.904Z,20.60
2017-07-01T14:20:02.434Z,20.10
2017-07-01T14:22:28.707Z,20.60
2017-07-01T14:24:54.992Z,20.20
2017-07-01T14:27:21.254Z,19.80
2017-07-01T14:29:47.569Z,20.20
2017-07-01T14:32:13.808Z,20.00
2017-07-01T14:34:40.051Z,19.70
2017-07-01T14:37:06.427Z,19.80
2017-07-01T14:39:32.667Z,19.80
2017-07-01T14:41:58.911Z,19.90
2017-07-01T14:44:25.169Z,20.60
2017-07-01T14:46:51.415Z,19.90
2017-07-01T14:49:17.679Z,20.60
2017-07-01T14:51:43.937Z,20.00
2017-07-01T14:54:10.186Z,20.20
2017-07-01T14:56:36.549Z,19.90
2017-07-01T14:59:02.822Z,20.20
2017-07-01T15:01:29.057Z,19.90
2017-07-01T15:03:55.290Z,20.00
2017-07-01T15:06:21.690Z,20.60
2017-07-01T15:08:47.958Z,21.30
2017-07-01T15:11:14.220Z,21.50
2017-07-01T15:13:40.517Z,21.40
2017-07-01T15:17:35.555Z,21.70
2017-07-01T15:20:04.100Z,21.60
2017-07-01T15:22:30.403Z,21.60
2017-07-01T15:24:56.645Z,21.60
2017-07-01T15:27:22.882Z,21.70
2017-07-01T15:29:49.163Z,22.30
2017-07-01T15:32:15.413Z,22.10
2017-07-01T15:34:41.640Z,21.80
2017-07-01T15:37:07.889Z,22.40
2017-07-01T15:39:38.985Z,22.50
2017-07-01T15:42:05.889Z,22.40
2017-07-01T15:44:32.162Z,21.60
2017-07-01T15:46:58.437Z,21.60
2017-07-01T15:49:24.677Z,21.60
2017-07-01T15:51:50.919Z,21.50
2017-07-01T15:54:17.160Z,21.40
2017-07-01T15:56:43.419Z,21.30
2017-07-01T15:59:10.415Z,21.40
2017-07-01T16:01:51.675Z,21.60
2017-07-01T16:04:18.086Z,21.50
2017-07-01T16:06:44.357Z,21.40
2017-07-01T16:09:10.669Z,21.30
2017-07-01T16:11:36.918Z,20.90
2017-07-01T16:14:03.156Z,20.70
2017-07-01T16:17:36.071Z,20.20
2017-07-01T16:20:02.534Z,20.20
2017-07-01T16:22:28.783Z,20.10
2017-07-01T16:24:55.056Z,20.20
2017-07-01T16:27:21.304Z,20.20
2017-07-01T16:29:47.544Z,20.50
2017-07-01T16:32:13.828Z,20.40
2017-07-01T16:34:40.056Z,20.60
2017-07-01T16:37:06.285Z,20.60
2017-07-01T16:39:32.515Z,20.40
2017-07-01T16:41:58.763Z,20.70
2017-07-01T16:44:25.029Z,20.70
2017-07-01T16:46:51.271Z,20.80
2017-07-01T16:49:17.520Z,20.80
2017-07-01T16:51:43.800Z,20.80
2017-07-01T16:54:10.118Z,20.50
2017-07-01T16:56:36.356Z,20.80
2017-07-01T16:59:02.599Z,20.00
2017-07-01T17:01:28.833Z,20.00
2017-07-01T17:03:55.112Z,20.00
2017-07-01T17:06:21.392Z,20.20
2017-07-01T17:08:47.626Z,20.00
2017-07-01T17:11:13.854Z,19.80
2017-07-01T17:13:40.091Z,19.80
2017-07-01T17:17:35.930Z,20.10
2017-07-01T17:20:02.159Z,19.90
2017-07-01T17:22:28.403Z,19.80
2017-07-01T17:24:54.656Z,20.00
2017-07-01T17:27:20.902Z,19.90
2017-07-01T17:29:47.136Z,19.80
2017-07-01T17:32:13.370Z,19.90
2017-07-01T17:34:39.599Z,19.90
2017-07-01T17:37:05.862Z,19.20
2017-07-01T17:39:32.141Z,19.30
2017-07-01T17:41:58.370Z,19.90
2017-07-01T17:44:24.644Z,19.80
2017-07-01T17:46:50.888Z,19.70
2017-07-01T17:49:17.121Z,19.40
2017-07-01T17:51:43.371Z,19.30
2017-07-01T17:54:09.596Z,19.50
2017-07-01T17:56:35.871Z,19.20
2017-07-01T17:59:02.104Z,19.30
2017-07-01T18:01:28.325Z,19.10
2017-07-01T18:03:54.569Z,19.10
2017-07-01T18:06:20.848Z,19.10
2017-07-01T18:08:47.116Z,19.20
2017-07-01T18:11:13.350Z,19.40
2017-07-01T18:13:39.565Z,19.20
2017-07-01T18:17:35.656Z,19.30
2017-07-01T18:20:02.056Z,19.20
2017-07-01T18:22:28.405Z,19.30
2017-07-01T18:24:54.635Z,19.20
2017-07-01T18:27:21.053Z,19.30
2017-07-01T18:29:47.447Z,19.20
2017-07-01T18:32:14.194Z,19.20
2017-07-01T18:34:40.494Z,19.20
2017-07-01T18:37:07.175Z,18.50
2017-07-01T18:39:33.614Z,19.20
2017-07-01T18:42:00.803Z,19.10
2017-07-01T18:44:27.214Z,19.10
2017-07-01T18:46:53.569Z,18.70
2017-07-01T18:49:19.891Z,19.10
2017-07-01T18:51:46.288Z,19.20
2017-07-01T18:54:12.792Z,19.20
2017-07-01T18:56:39.102Z,19.10
2017-07-01T18:59:05.374Z,19.10
2017-07-01T19:01:31.724Z,18.90
2017-07-01T19:03:58.316Z,19.00
2017-07-01T19:06:24.807Z,18.90
2017-07-01T19:08:51.132Z,18.90
2017-07-01T19:11:17.388Z,18.60
2017-07-01T19:13:43.693Z,18.70
2017-07-01T19:17:35.311Z,19.10
2017-07-01T19:20:01.590Z,19.20
2017-07-01T19:22:27.900Z,19.10
2017-07-01T19:24:54.201Z,18.80
2017-07-01T19:27:20.495Z,18.70
2017-07-01T19:29:47.082Z,18.70
2017-07-01T19:32:13.426Z,18.70
2017-07-01T19:34:39.707Z,18.70
2017-07-01T19:37:05.965Z,18.90
2017-07-01T19:39:32.264Z,18.70
2017-07-01T19:41:58.519Z,18.60
2017-07-01T19:44:24.764Z,18.70
2017-07-01T19:46:51.240Z,18.80
2017-07-01T19:49:17.523Z,18.50
2017-07-01T19:51:43.809Z,18.60
2017-07-01T19:54:10.062Z,18.90
2017-07-01T19:56:36.720Z,18.80
2017-07-01T19:59:03.101Z,18.60
2017-07-01T20:01:29.344Z,18.60
2017-07-01T20:03:55.590Z,18.80
2017-07-01T20:06:21.839Z,18.70
2017-07-01T20:08:48.080Z,18.70
2017-07-01T20:11:14.348Z,18.40
2017-07-01T20:13:40.577Z,18.10
2017-07-01T20:17:36.054Z,18.50
2017-07-01T20:20:02.296Z,18.40
2017-07-01T20:22:28.779Z,18.10
2017-07-01T20:24:54.994Z,18.00
2017-07-01T20:27:21.360Z,18.20
2017-07-01T20:29:47.607Z,18.10
2017-07-01T20:32:14.465Z,18.10
2017-07-01T20:34:41.061Z,17.90
2017-07-01T20:37:07.706Z,17.50
2017-07-01T20:39:33.992Z,17.50
2017-07-01T20:42:00.225Z,17.40
2017-07-01T20:44:26.528Z,17.20
2017-07-01T20:46:52.814Z,17.20
2017-07-01T20:49:19.061Z,17.40
2017-07-01T20:51:45.316Z,17.60
2017-07-01T20:54:11.595Z,17.50
2017-07-01T20:56:37.875Z,17.40
2017-07-01T20:59:04.127Z,17.60
2017-07-01T21:01:30.454Z,16.90
2017-07-01T21:03:56.724Z,17.60
2017-07-01T21:06:23.163Z,17.30
2017-07-01T21:08:49.490Z,17.50
2017-07-01T21:11:15.745Z,17.10
2017-07-01T21:13:41.996Z,17.10
2017-07-01T21:17:35.619Z,17.10
2017-07-01T21:20:01.937Z,16.70
2017-07-01T21:22:28.218Z,16.70
2017-07-01T21:24:54.666Z,17.00
2017-07-01T21:27:20.987Z,16.70
2017-07-01T21:29:47.226Z,16.20
2017-07-01T21:34:46.594Z,16.40
2017-07-01T21:37:13.014Z,16.60
2017-07-01T21:39:39.251Z,16.20
2017-07-01T21:42:05.519Z,16.30
2017-07-01T21:44:31.774Z,16.20
2017-07-01T21:46:58.084Z,16.20
2017-07-01T21:49:24.322Z,16.50
2017-07-01T21:51:50.591Z,16.20
2017-07-01T21:54:16.868Z,16.20
2017-07-01T21:56:43.109Z,16.50
2017-07-01T21:59:09.383Z,16.10
2017-07-01T22:01:35.663Z,15.90
2017-07-01T22:04:01.923Z,16.00
2017-07-01T22:06:28.166Z,15.90
2017-07-01T22:08:54.413Z,16.00
2017-07-01T22:11:20.680Z,15.70
2017-07-01T22:13:46.926Z,15.80
2017-07-01T22:17:35.265Z,16.10
2017-07-01T22:20:01.511Z,15.90
2017-07-01T22:22:27.791Z,16.10
2017-07-01T22:24:54.045Z,16.10
2017-07-01T22:27:20.290Z,16.40
2017-07-01T22:29:46.569Z,16.10
2017-07-01T22:32:12.803Z,16.20
2017-07-01T22:34:39.053Z,16.20
2017-07-01T22:37:05.308Z,16.10
2017-07-01T22:39:31.551Z,16.20
2017-07-01T22:41:57.801Z,16.30
2017-07-01T22:44:24.070Z,16.50
2017-07-01T22:46:50.438Z,16.20
2017-07-01T22:49:16.731Z,16.20
2017-07-01T22:51:43.012Z,16.20
2017-07-01T22:54:09.412Z,16.20
2017-07-01T22:56:35.671Z,16.10
2017-07-01T22:59:01.965Z,16.30
2017-07-01T23:01:28.223Z,16.20
2017-07-01T23:03:54.479Z,16.40
2017-07-01T23:06:20.747Z,16.60
2017-07-01T23:08:46.992Z,16.50
2017-07-01T23:11:13.247Z,15.90
2017-07-01T23:13:39.504Z,16.40
2017-07-01T23:17:36.065Z,15.90
2017-07-01T23:20:02.351Z,16.00
2017-07-01T23:22:28.603Z,16.20
2017-07-01T23:24:54.872Z,16.60
2017-07-01T23:27:21.136Z,16.30
2017-07-01T23:29:47.370Z,16.20
2017-07-01T23:32:13.612Z,16.40
2017-07-01T23:34:39.873Z,16.30
2017-07-01T23:37:06.188Z,16.40
2017-07-01T23:39:32.419Z,16.10
2017-07-01T23:41:58.703Z,16.40
2017-07-01T23:44:25.021Z,16.20
2017-07-01T23:46:51.263Z,16.30
2017-07-01T23:49:17.518Z,16.40
2017-07-01T23:51:43.835Z,16.00
2017-07-01T23:54:10.087Z,16.20
2017-07-01T23:56:36.359Z,16.30
2017-07-01T23:59:02.590Z,16.10
